Time;durP1;ratioP1;P1;durP2;ratioP2;P2;SDS_P1;SDS_P2;PMS_P1;PMS_P2;Temp;Humidity;BMP_temperature;BMP_pressure;BME280_temperature;BME280_humidity;BME280_pressure;Samples;Min_cycle;Max_cycle;Signal;HPM_P1;HPM_P2
2021/09/06 00:00:53;;;;;;;5.10;3.55;;;;;;;13.82;73.27;101620.13;5065687;28;20083;-65
2021/09/06 00:03:20;;;;;;;6.53;3.20;;;;;;;13.79;73.51;101619.47;5046560;28;20473;-66
2021/09/06 00:05:48;;;;;;;6.45;3.50;;;;;;;13.80;73.76;101623.81;5069178;28;20075;-66
2021/09/06 00:08:15;;;;;;;8.45;3.70;;;;;;;13.81;73.03;101617.56;5066913;28;20099;-65
2021/09/06 00:10:44;;;;;;;6.93;3.50;;;;;;;13.75;73.62;101613.47;5052212;28;20056;-64
2021/09/06 00:13:14;;;;;;;6.50;3.58;;;;;;;13.78;73.56;101608.03;5051404;28;20434;-66
2021/09/06 00:15:41;;;;;;;6.32;3.10;;;;;;;13.71;73.99;101603.16;5060031;28;20036;-65
2021/09/06 00:18:10;;;;;;;6.32;3.58;;;;;;;13.76;73.68;101606.41;5063560;28;20079;-65
2021/09/06 00:20:38;;;;;;;7.80;3.17;;;;;;;13.66;74.17;101619.28;5062548;28;20068;-65
2021/09/06 00:23:06;;;;;;;8.00;3.63;;;;;;;13.67;73.76;101613.91;5059648;28;20049;-66
2021/09/06 00:25:33;;;;;;;5.53;3.15;;;;;;;13.61;73.79;101616.91;5063421;28;20056;-65
2021/09/06 00:28:00;;;;;;;6.15;3.25;;;;;;;13.53;74.52;101605.03;5059304;28;20130;-65
2021/09/06 00:30:27;;;;;;;5.00;3.17;;;;;;;13.67;73.99;101610.41;5062606;28;20148;-64
2021/09/06 00:32:55;;;;;;;7.75;3.67;;;;;;;13.58;74.67;101610.94;5062499;28;20147;-65
2021/09/06 00:35:22;;;;;;;7.13;3.45;;;;;;;13.43;75.27;101602.91;5057269;28;20147;-64
2021/09/06 00:37:49;;;;;;;5.90;3.42;;;;;;;13.45;75.00;101602.81;5063533;28;20185;-64
2021/09/06 00:40:16;;;;;;;10.80;3.97;;;;;;;13.39;75.44;101605.81;5060353;28;20107;-65
2021/09/06 00:42:43;;;;;;;7.38;3.72;;;;;;;13.35;75.18;101599.81;5064476;28;20121;-65
2021/09/06 00:45:11;;;;;;;8.02;3.05;;;;;;;13.31;75.93;101608.88;5072237;28;20089;-65
2021/09/06 00:47:39;;;;;;;7.60;4.13;;;;;;;13.27;75.59;101609.97;5065481;28;20076;-65
2021/09/06 00:50:09;;;;;;;6.95;3.35;;;;;;;13.28;76.59;101608.16;5062425;28;20056;-66
2021/09/06 00:52:37;;;;;;;6.10;3.70;;;;;;;13.34;75.77;101608.72;5064783;28;20045;-65
2021/09/06 00:55:05;;;;;;;5.63;3.35;;;;;;;13.36;75.58;101606.81;5071984;28;20108;-65
2021/09/06 00:57:33;;;;;;;5.03;3.20;;;;;;;13.25;76.52;101605.72;5070911;28;20095;-66
2021/09/06 01:00:02;;;;;;;5.88;3.55;;;;;;;13.14;76.65;101606.25;5061060;28;20164;-67
2021/09/06 01:02:29;;;;;;;5.40;3.38;;;;;;;13.18;76.31;101606.00;5043448;28;20174;-66
2021/09/06 01:04:57;;;;;;;4.88;3.30;;;;;;;13.11;77.05;101604.63;5060835;28;20147;-66
2021/09/06 01:07:24;;;;;;;6.47;3.58;;;;;;;13.12;77.21;101603.69;5062004;28;20531;-65
2021/09/06 01:09:51;;;;;;;5.28;3.28;;;;;;;13.14;76.34;101600.97;5056177;28;20060;-65
2021/09/06 01:12:18;;;;;;;10.05;3.95;;;;;;;13.18;76.38;101602.50;5056075;28;20048;-66
2021/09/06 01:14:46;;;;;;;6.13;3.55;;;;;;;13.15;76.37;101597.41;5068609;28;20387;-64
2021/09/06 01:17:13;;;;;;;6.43;4.10;;;;;;;13.22;76.01;101605.84;5060665;28;20076;-65
2021/09/06 01:19:40;;;;;;;5.43;3.30;;;;;;;13.21;75.99;101601.50;5061546;28;20578;-66
2021/09/06 01:22:07;;;;;;;8.30;3.90;;;;;;;13.08;76.71;101596.88;5062877;28;20545;-66
2021/09/06 01:24:35;;;;;;;9.93;3.30;;;;;;;12.95;77.93;101594.97;5057480;28;20052;-65
2021/09/06 01:27:02;;;;;;;5.13;3.20;;;;;;;12.83;78.70;101604.38;5047683;28;20071;-66
2021/09/06 01:29:29;;;;;;;6.57;3.70;;;;;;;12.73;78.83;101608.44;5061484;28;20162;-66
2021/09/06 01:31:56;;;;;;;4.90;3.50;;;;;;;12.92;77.46;101603.88;5047380;28;20131;-66
2021/09/06 01:34:23;;;;;;;5.15;3.20;;;;;;;12.87;77.89;101598.00;5066230;28;20470;-66
2021/09/06 01:36:51;;;;;;;5.72;3.45;;;;;;;12.96;77.56;101594.88;5071284;28;20159;-65
2021/09/06 01:39:18;;;;;;;6.03;3.55;;;;;;;12.91;77.79;101597.75;5061348;28;20079;-67
2021/09/06 01:41:45;;;;;;;4.35;3.25;;;;;;;12.96;77.76;101600.16;5054785;28;20431;-66
2021/09/06 01:44:12;;;;;;;6.90;3.40;;;;;;;12.83;78.02;101599.09;5060368;28;20118;-65
2021/09/06 01:46:39;;;;;;;5.88;3.70;;;;;;;12.73;78.99;101601.38;5066306;28;20063;-65
2021/09/06 01:49:06;;;;;;;8.30;3.67;;;;;;;12.68;79.11;101601.63;5063104;28;20371;-65
2021/09/06 01:51:33;;;;;;;8.75;3.92;;;;;;;12.73;78.67;101604.00;5058771;28;20086;-65
2021/09/06 01:54:01;;;;;;;4.65;3.35;;;;;;;12.75;78.62;101606.59;5055696;28;20041;-65
2021/09/06 01:56:28;;;;;;;4.88;3.70;;;;;;;12.64;79.04;101592.13;5055379;28;20078;-65
2021/09/06 01:58:56;;;;;;;6.82;3.15;;;;;;;12.70;78.95;101595.38;5063187;28;20058;-66
2021/09/06 02:01:23;;;;;;;5.80;3.38;;;;;;;12.66;79.55;101594.72;5054958;28;20421;-66
2021/09/06 02:03:51;;;;;;;5.20;2.78;;;;;;;12.66;79.33;101592.94;5060647;28;20128;-66
2021/09/06 02:06:18;;;;;;;5.65;3.70;;;;;;;12.56;79.71;101593.47;5063034;28;20058;-65
2021/09/06 02:08:45;;;;;;;4.88;3.58;;;;;;;12.60;79.34;101590.59;5072099;28;20136;-65
2021/09/06 02:11:15;;;;;;;6.57;3.80;;;;;;;12.52;79.55;101592.78;5056308;28;20167;-66
2021/09/06 02:13:42;;;;;;;8.43;3.97;;;;;;;12.47;80.58;101600.06;5068344;28;20051;-66
2021/09/06 02:16:10;;;;;;;6.95;3.15;;;;;;;12.45;80.73;101601.94;5064798;28;20072;-65
2021/09/06 02:18:37;;;;;;;6.50;3.58;;;;;;;12.46;80.91;101606.28;5064527;28;20731;-65
2021/09/06 02:21:04;;;;;;;6.15;3.85;;;;;;;12.28;81.65;101608.06;5062710;28;20530;-66
2021/09/06 02:23:31;;;;;;;7.55;3.40;;;;;;;12.24;81.74;101608.31;5061100;28;20052;-65
2021/09/06 02:25:58;;;;;;;7.05;3.83;;;;;;;12.27;81.82;101610.81;5054909;28;20051;-66
2021/09/06 02:28:25;;;;;;;4.68;3.10;;;;;;;12.21;81.97;101614.63;5052129;28;20163;-65
2021/09/06 02:30:53;;;;;;;5.72;3.63;;;;;;;12.32;81.78;101614.91;5049622;28;20144;-66
2021/09/06 02:33:20;;;;;;;6.65;3.83;;;;;;;12.20;82.58;101622.59;5039587;28;20351;-65
2021/09/06 02:35:47;;;;;;;5.72;3.70;;;;;;;12.15;83.27;101618.38;5066403;28;20072;-66
2021/09/06 02:38:14;;;;;;;7.25;3.35;;;;;;;12.22;82.59;101618.09;5066834;28;20143;-66
2021/09/06 02:40:41;;;;;;;6.15;3.70;;;;;;;12.19;82.75;101620.88;5063503;28;20136;-65
2021/09/06 02:43:09;;;;;;;7.97;4.20;;;;;;;12.10;83.13;101623.06;5066484;28;20114;-66
2021/09/06 02:45:36;;;;;;;8.95;4.20;;;;;;;12.00;84.16;101615.66;5064061;28;20059;-66
2021/09/06 02:48:03;;;;;;;8.10;3.65;;;;;;;11.99;84.43;101620.09;5068394;28;20175;-66
2021/09/06 02:50:30;;;;;;;5.05;3.42;;;;;;;12.01;84.24;101614.72;5062625;28;20057;-65
2021/09/06 02:52:57;;;;;;;4.43;3.60;;;;;;;11.99;84.29;101613.97;5069787;28;20048;-65
2021/09/06 02:55:25;;;;;;;9.02;3.88;;;;;;;11.86;85.30;101617.19;5063210;28;20147;-65
2021/09/06 02:57:52;;;;;;;7.80;3.85;;;;;;;11.85;85.50;101617.28;5063285;28;20171;-65
2021/09/06 03:00:20;;;;;;;8.35;3.60;;;;;;;11.87;85.12;101615.41;5062687;28;20510;-65
2021/09/06 03:02:48;;;;;;;7.32;3.90;;;;;;;11.94;84.83;101606.28;5066483;28;20048;-65
2021/09/06 03:05:15;;;;;;;8.27;4.03;;;;;;;11.77;86.11;101599.16;5060871;28;20482;-65
2021/09/06 03:07:43;;;;;;;5.90;4.10;;;;;;;11.77;86.77;101604.41;5064187;28;20235;-66
2021/09/06 03:10:10;;;;;;;8.13;3.63;;;;;;;11.84;86.11;101612.91;5064649;28;20248;-65
2021/09/06 03:12:37;;;;;;;7.88;3.83;;;;;;;11.76;86.77;101608.00;5068093;28;20599;-65
2021/09/06 03:15:05;;;;;;;8.25;3.92;;;;;;;11.66;87.17;101606.69;5059113;28;20081;-65
2021/09/06 03:17:33;;;;;;;9.27;3.90;;;;;;;11.78;86.58;101600.84;5065655;28;20052;-65
2021/09/06 03:20:00;;;;;;;7.78;3.97;;;;;;;11.79;86.68;101604.34;5062471;28;20107;-63
2021/09/06 03:22:27;;;;;;;6.95;4.10;;;;;;;11.76;87.05;101599.22;5065727;28;20067;-64
2021/09/06 03:24:54;;;;;;;6.80;3.75;;;;;;;11.77;86.76;101606.22;5062346;28;20146;-64
2021/09/06 03:27:21;;;;;;;10.32;4.10;;;;;;;11.75;86.71;101600.13;5064548;28;20057;-66
2021/09/06 03:29:49;;;;;;;11.75;4.57;;;;;;;11.58;87.51;101600.97;5067768;28;20044;-65
2021/09/06 03:32:16;;;;;;;7.57;3.70;;;;;;;11.48;89.11;101595.25;5068766;28;20155;-65
2021/09/06 03:34:43;;;;;;;5.65;4.10;;;;;;;11.41;89.53;101594.69;5082289;28;20135;-66
2021/09/06 03:37:10;;;;;;;6.97;4.20;;;;;;;11.40;89.77;101589.50;5067533;28;20048;-65
2021/09/06 03:39:37;;;;;;;7.22;4.00;;;;;;;11.42;89.92;101598.19;5059170;28;20130;-65
2021/09/06 03:42:04;;;;;;;6.88;3.90;;;;;;;11.49;88.95;101588.22;5062102;28;20048;-66
2021/09/06 03:44:31;;;;;;;6.18;3.95;;;;;;;11.37;89.47;101597.53;5058137;28;20110;-66
2021/09/06 03:46:58;;;;;;;6.03;4.13;;;;;;;11.43;89.61;101591.13;5066185;28;20080;-65
2021/09/06 03:49:29;;;;;;;8.85;4.28;;;;;;;11.44;89.70;101596.34;5077806;28;20785;-66
2021/09/06 03:51:56;;;;;;;5.88;3.65;;;;;;;11.47;89.12;101588.25;5057175;28;20175;-66
2021/09/06 03:54:23;;;;;;;10.32;4.57;;;;;;;11.41;89.67;101578.03;5059377;28;20594;-67
2021/09/06 03:56:51;;;;;;;9.15;4.18;;;;;;;11.48;89.27;101586.47;5043757;28;20147;-65
2021/09/06 03:59:18;;;;;;;8.25;4.55;;;;;;;11.29;90.63;101589.97;5058566;28;20993;-67
2021/09/06 04:01:46;;;;;;;6.85;4.30;;;;;;;11.37;90.43;101592.28;5061649;28;20507;-66
2021/09/06 04:04:14;;;;;;;6.90;4.07;;;;;;;11.34;90.56;101592.41;5061899;28;20104;-67
2021/09/06 04:06:41;;;;;;;6.35;4.20;;;;;;;11.22;91.52;101593.00;5065555;28;20072;-66
2021/09/06 04:09:08;;;;;;;7.35;4.35;;;;;;;11.31;91.09;101595.19;5059241;28;20052;-68
2021/09/06 04:11:35;;;;;;;8.00;4.47;;;;;;;11.16;91.47;101592.31;5062707;28;20127;-66
2021/09/06 04:14:02;;;;;;;7.97;4.75;;;;;;;11.19;92.01;101601.88;5061081;28;20470;-66
2021/09/06 04:16:29;;;;;;;9.10;5.10;;;;;;;11.07;92.54;101591.88;5027591;28;20602;-65
2021/09/06 04:18:57;;;;;;;7.30;4.55;;;;;;;11.12;92.19;101595.16;5055919;28;20052;-66
2021/09/06 04:21:24;;;;;;;10.25;4.45;;;;;;;11.04;93.25;101597.31;5011931;28;20068;-65
2021/09/06 04:23:51;;;;;;;8.77;5.55;;;;;;;11.06;93.27;101598.94;5056563;28;21375;-67
2021/09/06 04:26:18;;;;;;;8.98;5.03;;;;;;;11.07;93.59;101602.44;5061883;28;20041;-66
2021/09/06 04:28:46;;;;;;;8.00;4.40;;;;;;;10.94;93.60;101607.41;5062275;28;20147;-68
2021/09/06 04:31:13;;;;;;;8.23;5.15;;;;;;;11.01;93.62;101603.56;5038900;28;20064;-66
2021/09/06 04:33:40;;;;;;;9.75;4.65;;;;;;;11.10;93.13;101597.03;5031999;28;20059;-66
2021/09/06 04:36:07;;;;;;;5.35;4.40;;;;;;;11.03;93.21;101598.22;5067300;28;20072;-66
2021/09/06 04:38:35;;;;;;;8.80;4.65;;;;;;;11.10;93.04;101597.88;5061555;28;20044;-66
2021/09/06 04:41:02;;;;;;;7.70;4.15;;;;;;;11.02;93.29;101592.09;5077588;28;20048;-66
2021/09/06 04:43:30;;;;;;;9.63;4.95;;;;;;;11.00;93.76;101596.59;5060773;28;20136;-66
2021/09/06 04:45:57;;;;;;;8.15;4.65;;;;;;;10.99;94.11;101602.81;5060258;28;20110;-65
2021/09/06 04:48:25;;;;;;;6.78;3.95;;;;;;;11.14;92.84;101601.25;5041066;28;20515;-67
2021/09/06 04:50:52;;;;;;;9.60;4.65;;;;;;;11.26;91.71;101610.38;5043397;28;20147;-66
2021/09/06 04:53:19;;;;;;;9.88;4.82;;;;;;;11.25;92.23;101609.50;5058396;28;20059;-66
2021/09/06 04:55:46;;;;;;;8.90;4.53;;;;;;;11.29;91.31;101613.72;5054920;23;20053;-68
2021/09/06 04:58:14;;;;;;;7.20;5.38;;;;;;;11.37;91.41;101613.34;5063212;28;20437;-65
2021/09/06 05:00:41;;;;;;;11.75;5.30;;;;;;;11.36;91.36;101620.41;5070334;28;20602;-65
2021/09/06 05:03:08;;;;;;;8.15;4.57;;;;;;;11.38;91.38;101612.44;5079600;28;20044;-64
2021/09/06 05:05:36;;;;;;;8.40;4.40;;;;;;;11.45;91.05;101615.66;5060412;28;20147;-65
2021/09/06 05:08:03;;;;;;;12.63;4.45;;;;;;;11.50;90.38;101616.28;5083495;28;20044;-64
2021/09/06 05:10:32;;;;;;;7.05;4.90;;;;;;;11.56;90.03;101619.47;5083462;28;20119;-64
2021/09/06 05:12:59;;;;;;;9.82;4.57;;;;;;;11.56;89.89;101619.47;5069157;28;20131;-65
2021/09/06 05:15:26;;;;;;;7.13;4.32;;;;;;;11.64;89.19;101619.13;5079452;28;20059;-64
2021/09/06 05:17:55;;;;;;;8.80;4.80;;;;;;;11.68;89.10;101622.47;5066882;28;20127;-65
2021/09/06 05:20:22;;;;;;;11.25;4.30;;;;;;;11.88;87.59;101620.59;5079079;28;20048;-66
2021/09/06 05:22:51;;;;;;;11.55;5.63;;;;;;;12.09;86.29;101624.00;5067964;28;20047;-65
2021/09/06 05:25:19;;;;;;;7.55;4.40;;;;;;;12.14;86.37;101623.75;5047512;28;20048;-65
2021/09/06 05:27:46;;;;;;;8.98;4.63;;;;;;;12.20;85.74;101630.50;5052835;28;20044;-65
2021/09/06 05:30:13;;;;;;;7.20;4.38;;;;;;;12.13;85.85;101627.34;5048778;28;20489;-67
2021/09/06 05:32:41;;;;;;;10.20;5.47;;;;;;;12.15;85.79;101634.22;5084444;28;20540;-65
2021/09/06 05:35:08;;;;;;;8.18;5.15;;;;;;;12.13;86.12;101632.63;5082116;28;20226;-66
2021/09/06 05:37:36;;;;;;;11.63;4.60;;;;;;;12.34;85.64;101634.19;5085329;28;20048;-66
2021/09/06 05:40:04;;;;;;;6.00;3.78;;;;;;;12.44;83.79;101637.22;5080766;28;20045;-66
2021/09/06 05:42:32;;;;;;;9.25;4.72;;;;;;;12.60;83.42;101638.13;5048230;28;20419;-65
2021/09/06 05:44:59;;;;;;;7.70;4.15;;;;;;;12.57;83.20;101640.94;5048502;28;20529;-65
2021/09/06 05:47:26;;;;;;;7.38;4.47;;;;;;;12.59;83.09;101636.44;5077581;28;20052;-65
2021/09/06 05:49:53;;;;;;;8.70;4.72;;;;;;;12.66;82.74;101637.00;5060436;28;20048;-66
2021/09/06 05:52:21;;;;;;;10.23;4.40;;;;;;;12.65;82.97;101640.53;5082868;28;20127;-64
2021/09/06 05:54:48;;;;;;;7.25;4.00;;;;;;;12.76;82.79;101638.22;5063827;28;20044;-66
2021/09/06 05:57:15;;;;;;;11.05;4.22;;;;;;;12.89;81.81;101639.28;5060436;28;20044;-67
2021/09/06 05:59:42;;;;;;;11.25;4.50;;;;;;;13.13;80.67;101636.28;5059329;28;20135;-66
2021/09/06 06:02:09;;;;;;;8.07;4.38;;;;;;;13.32;79.66;101638.81;5084293;28;20066;-65
2021/09/06 06:04:37;;;;;;;10.30;5.07;;;;;;;13.42;78.94;101642.69;5077578;28;20049;-65
2021/09/06 06:07:04;;;;;;;9.27;4.70;;;;;;;13.44;78.87;101651.38;5061150;28;20292;-65
2021/09/06 06:09:31;;;;;;;7.28;4.50;;;;;;;13.60;78.15;101641.66;5078663;28;20052;-67
2021/09/06 06:11:58;;;;;;;9.05;4.55;;;;;;;13.74;77.60;101637.41;5065649;28;20040;-65
2021/09/06 06:14:26;;;;;;;8.88;5.13;;;;;;;13.96;75.84;101643.19;5059619;28;20061;-68
2021/09/06 06:16:53;;;;;;;11.10;4.80;;;;;;;14.17;75.28;101641.09;5061212;28;20120;-66
2021/09/06 06:19:21;;;;;;;6.35;4.30;;;;;;;14.86;72.32;101642.31;5047147;28;20175;-66
2021/09/06 06:21:48;;;;;;;12.63;4.95;;;;;;;15.36;69.61;101647.19;5075205;28;20123;-66
2021/09/06 06:24:15;;;;;;;6.82;3.90;;;;;;;16.48;65.88;101641.72;5071816;28;20052;-67
2021/09/06 06:26:46;;;;;;;8.32;3.83;;;;;;;18.42;58.21;101642.00;5080230;28;20589;-65
2021/09/06 06:29:13;;;;;;;7.90;4.07;;;;;;;20.29;52.05;101627.09;5062912;28;20155;-64
2021/09/06 06:31:40;;;;;;;8.38;4.43;;;;;;;22.20;46.60;101631.72;5076494;28;20135;-65
2021/09/06 06:34:07;;;;;;;9.27;3.83;;;;;;;22.88;44.47;101631.63;5075067;28;20070;-67
2021/09/06 06:36:35;;;;;;;14.20;5.45;;;;;;;23.99;40.88;101632.47;5071318;28;20041;-66
2021/09/06 06:39:10;;;;;;;6.45;4.13;;;;;;;24.55;40.87;101633.19;5087091;28;20062;-66
2021/09/06 06:41:37;;;;;;;7.63;3.90;;;;;;;25.48;38.03;101628.78;5068211;28;20051;-66
2021/09/06 06:44:05;;;;;;;8.38;3.97;;;;;;;26.04;35.96;101631.84;5076692;28;20044;-65
2021/09/06 06:46:32;;;;;;;5.68;3.97;;;;;;;26.53;35.97;101627.31;5062586;28;20076;-66
2021/09/06 06:49:00;;;;;;;6.35;4.35;;;;;;;24.83;37.44;101634.69;5064390;28;20565;-67
2021/09/06 06:51:27;;;;;;;10.40;4.63;;;;;;;25.44;37.40;101638.22;5076728;28;20063;-66
2021/09/06 06:53:54;;;;;;;7.45;4.38;;;;;;;25.58;36.97;101640.31;5081671;28;20132;-65
2021/09/06 06:56:21;;;;;;;6.82;4.03;;;;;;;25.66;37.19;101634.91;5084451;28;20052;-66
2021/09/06 06:58:49;;;;;;;7.90;4.65;;;;;;;25.44;37.15;101641.78;5065271;28;20122;-65
2021/09/06 07:01:16;;;;;;;10.30;4.38;;;;;;;25.38;37.07;101641.56;5078405;28;20295;-66
2021/09/06 07:03:44;;;;;;;11.38;4.45;;;;;;;25.82;36.58;101647.66;5080626;28;20048;-65
2021/09/06 07:06:11;;;;;;;8.65;3.95;;;;;;;27.06;34.92;101654.69;5065919;28;20094;-66
2021/09/06 07:08:38;;;;;;;10.60;4.10;;;;;;;26.91;34.63;101652.72;5069665;28;20040;-66
2021/09/06 07:11:06;;;;;;;11.23;4.15;;;;;;;27.31;33.80;101655.50;5081870;28;20032;-66
2021/09/06 07:13:33;;;;;;;7.22;4.10;;;;;;;28.13;32.38;101659.44;5045948;28;20053;-66
2021/09/06 07:16:00;;;;;;;9.27;4.43;;;;;;;27.31;33.46;101663.63;5058037;28;20112;-65
2021/09/06 07:18:28;;;;;;;8.23;4.40;;;;;;;25.58;36.47;101659.19;5050661;28;20079;-65
2021/09/06 07:20:55;;;;;;;6.30;4.07;;;;;;;25.88;36.35;101668.56;5080273;28;20138;-65
2021/09/06 07:23:22;;;;;;;7.55;4.35;;;;;;;26.42;35.10;101662.72;5084069;28;20147;-67
2021/09/06 07:25:49;;;;;;;10.23;4.55;;;;;;;26.43;35.49;101662.59;5081787;28;20587;-67
2021/09/06 07:28:17;;;;;;;7.55;4.22;;;;;;;26.13;35.56;101668.63;5058209;28;20140;-65
2021/09/06 07:30:44;;;;;;;10.57;4.20;;;;;;;26.67;35.33;101669.81;5049563;28;20067;-66
2021/09/06 07:33:11;;;;;;;8.80;4.65;;;;;;;27.55;33.67;101666.19;5085912;28;20058;-64
2021/09/06 07:35:38;;;;;;;6.82;4.38;;;;;;;28.67;31.92;101669.34;5077954;28;20139;-65
2021/09/06 07:38:05;;;;;;;7.13;4.40;;;;;;;28.92;31.41;101665.38;5045024;28;20045;-66
2021/09/06 07:40:33;;;;;;;7.05;4.50;;;;;;;28.59;31.34;101664.84;5064984;28;20075;-66
2021/09/06 07:43:00;;;;;;;13.55;5.10;;;;;;;28.87;31.31;101665.09;5078267;28;20082;-67
2021/09/06 07:45:27;;;;;;;11.68;4.60;;;;;;;28.32;31.44;101658.13;5076335;28;20475;-67
2021/09/06 07:47:54;;;;;;;11.20;5.07;;;;;;;27.77;32.77;101662.72;5082218;28;20072;-67
2021/09/06 07:50:22;;;;;;;8.77;5.15;;;;;;;28.19;32.26;101666.88;5072537;28;20068;-66
2021/09/06 07:52:49;;;;;;;8.70;4.55;;;;;;;28.79;30.79;101664.34;5067500;28;20051;-68
2021/09/06 07:55:16;;;;;;;10.90;5.45;;;;;;;26.99;34.53;101665.38;5062935;28;20132;-67
2021/09/06 07:57:43;;;;;;;9.95;5.47;;;;;;;28.61;32.46;101661.97;5080542;28;20047;-66
2021/09/06 08:00:11;;;;;;;9.43;4.93;;;;;;;29.43;30.17;101659.22;5078535;28;20048;-68
2021/09/06 08:02:51;;;;;;;8.63;5.63;;;;;;;29.08;30.96;101667.09;5081711;28;20051;-67
2021/09/06 08:05:23;;;;;;;13.95;4.70;;;;;;;29.20;30.82;101668.31;5046092;28;20162;-66
2021/09/06 08:07:52;;;;;;;10.02;5.93;;;;;;;28.79;31.62;101670.59;5063820;28;20438;-66
2021/09/06 08:10:20;;;;;;;9.15;5.68;;;;;;;28.22;32.33;101666.50;5081750;28;20052;-67
2021/09/06 08:12:47;;;;;;;9.10;4.97;;;;;;;28.75;31.61;101667.41;5075116;28;20131;-67
2021/09/06 08:15:16;;;;;;;9.70;4.68;;;;;;;29.29;31.63;101670.94;5050066;28;20071;-67
2021/09/06 08:17:43;;;;;;;11.27;5.00;;;;;;;29.18;31.96;101669.50;5057689;28;20069;-67
2021/09/06 08:20:13;;;;;;;11.52;5.57;;;;;;;30.58;28.70;101669.25;5074644;28;20041;-66
2021/09/06 08:22:41;;;;;;;6.93;5.38;;;;;;;30.07;29.48;101669.38;5065434;28;20040;-66
2021/09/06 08:25:10;;;;;;;7.57;4.70;;;;;;;29.42;30.44;101671.94;5066870;28;20620;-67
2021/09/06 08:27:38;;;;;;;11.38;4.95;;;;;;;29.74;30.63;101667.97;5057232;28;20144;-66
2021/09/06 08:30:07;;;;;;;8.88;4.82;;;;;;;30.54;28.45;101671.53;5074699;28;20056;-67
2021/09/06 08:32:36;;;;;;;9.93;4.65;;;;;;;30.39;29.33;101681.59;5083814;28;20489;-67
2021/09/06 08:35:04;;;;;;;13.93;5.03;;;;;;;28.38;31.94;101680.97;5039220;28;20127;-67
2021/09/06 08:37:31;;;;;;;11.35;5.25;;;;;;;30.47;29.22;101673.31;5079864;28;20483;-66
2021/09/06 08:39:59;;;;;;;5.78;4.72;;;;;;;28.38;31.86;101678.25;5058795;28;20581;-67
2021/09/06 08:42:26;;;;;;;11.13;5.63;;;;;;;24.67;38.91;101681.19;5063779;28;20087;-67
2021/09/06 08:44:53;;;;;;;9.32;4.90;;;;;;;23.91;41.26;101681.69;5075695;28;20128;-67
2021/09/06 08:47:20;;;;;;;11.55;4.97;;;;;;;22.86;43.15;101684.59;5062250;28;20127;-66
2021/09/06 08:49:49;;;;;;;8.93;5.32;;;;;;;22.51;44.76;101685.22;5079435;28;20532;-66
2021/09/06 08:52:16;;;;;;;9.82;6.63;;;;;;;22.07;46.34;101681.25;5064015;28;20074;-67
2021/09/06 08:54:43;;;;;;;9.82;5.70;;;;;;;21.70;47.88;101682.72;5077728;28;20104;-67
2021/09/06 08:57:10;;;;;;;11.18;6.07;;;;;;;21.43;49.36;101687.81;5064784;28;20071;-67
2021/09/06 08:59:44;;;;;;;15.55;6.13;;;;;;;21.57;48.66;101681.25;5080294;28;20056;-66
2021/09/06 09:02:12;;;;;;;12.27;6.22;;;;;;;20.72;50.80;101693.06;5044328;28;20080;-67
2021/09/06 09:04:44;;;;;;;9.27;5.65;;;;;;;20.19;52.35;101690.34;5078903;28;20137;-67
2021/09/06 09:07:11;;;;;;;14.07;5.70;;;;;;;20.19;53.10;101690.34;5086210;28;20060;-67
2021/09/06 09:09:38;;;;;;;10.15;6.22;;;;;;;20.32;54.33;101693.69;5062313;28;20101;-67
2021/09/06 09:12:15;;;;;;;14.18;6.03;;;;;;;20.45;53.59;101701.56;5085703;28;20075;-67
2021/09/06 09:14:50;;;;;;;10.82;6.97;;;;;;;20.50;54.83;101699.38;5075612;28;20059;-67
2021/09/06 09:17:17;;;;;;;15.93;8.60;;;;;;;20.12;55.58;101695.34;5047595;28;20046;-68
2021/09/06 09:19:45;;;;;;;11.93;8.20;;;;;;;20.30;55.25;101698.31;5061483;28;20413;-67
2021/09/06 09:22:16;;;;;;;15.70;7.20;;;;;;;20.27;55.49;101698.59;5079234;28;20553;-68
2021/09/06 09:24:43;;;;;;;20.00;7.97;;;;;;;20.41;54.63;101697.44;5061386;28;20134;-67
2021/09/06 09:27:13;;;;;;;11.98;7.75;;;;;;;20.59;54.59;101695.94;5081264;28;20050;-68
2021/09/06 09:29:43;;;;;;;10.43;7.10;;;;;;;20.65;53.44;101695.41;5079778;28;20123;-66
2021/09/06 09:32:12;;;;;;;15.52;7.93;;;;;;;20.33;55.32;101689.19;5083165;28;20113;-67
2021/09/06 09:34:41;;;;;;;14.30;7.78;;;;;;;20.39;55.32;101691.34;5078611;28;20139;-67
2021/09/06 09:37:09;;;;;;;11.07;6.90;;;;;;;20.68;54.67;101691.63;5060925;28;20048;-67
2021/09/06 09:39:37;;;;;;;13.45;7.38;;;;;;;20.72;54.22;101695.75;5062730;28;20052;-67
2021/09/06 09:42:08;;;;;;;15.45;7.57;;;;;;;20.37;55.33;101686.13;5052469;28;20048;-66
2021/09/06 09:44:47;;;;;;;13.18;7.35;;;;;;;20.46;55.32;101684.53;5078495;28;20056;-67
2021/09/06 09:47:20;;;;;;;14.30;7.55;;;;;;;20.35;55.61;101680.06;5064460;28;20131;-67
2021/09/06 09:49:48;;;;;;;15.82;7.55;;;;;;;20.39;56.25;101681.50;5060660;28;20135;-66
2021/09/06 09:52:17;;;;;;;14.77;7.35;;;;;;;20.74;55.12;101678.56;5064918;28;20055;-66
2021/09/06 09:54:52;;;;;;;13.40;7.20;;;;;;;20.59;55.04;101679.03;5079289;28;20192;-66
2021/09/06 09:57:24;;;;;;;15.15;7.03;;;;;;;20.85;54.88;101671.44;5080470;28;20135;-66
2021/09/06 09:59:52;;;;;;;11.20;7.93;;;;;;;20.42;55.94;101669.72;5041981;28;20118;-66
2021/09/06 10:02:24;;;;;;;11.45;7.32;;;;;;;20.82;54.61;101669.03;5062594;28;20135;-66
2021/09/06 10:04:54;;;;;;;13.45;7.70;;;;;;;20.59;54.69;101671.84;5079607;28;20082;-67
2021/09/06 10:07:25;;;;;;;12.48;7.28;;;;;;;20.26;55.66;101661.25;5066394;28;20098;-67
2021/09/06 10:09:53;;;;;;;15.73;8.77;;;;;;;20.63;54.64;101667.94;5063004;28;20077;-66
2021/09/06 10:12:21;;;;;;;13.35;7.30;;;;;;;20.66;54.84;101672.16;5049190;28;20048;-67
2021/09/06 10:14:56;;;;;;;11.52;6.78;;;;;;;20.81;54.40;101667.34;5048194;28;20731;-66
2021/09/06 10:17:34;;;;;;;14.25;7.05;;;;;;;20.41;55.10;101663.50;5068082;28;20050;-68
2021/09/06 10:20:15;;;;;;;22.38;7.53;;;;;;;20.26;56.07;101662.09;5065250;28;20062;-67
2021/09/06 10:22:44;;;;;;;12.15;8.02;;;;;;;20.28;55.85;101670.03;5067343;28;20237;-67
2021/09/06 10:25:16;;;;;;;13.57;8.15;;;;;;;20.25;56.19;101668.44;5086006;28;20123;-67
2021/09/06 10:27:57;;;;;;;15.85;7.35;;;;;;;20.82;55.44;101664.53;5053431;28;20143;-67
2021/09/06 10:30:38;;;;;;;14.50;7.70;;;;;;;20.89;55.58;101660.34;5080825;28;20569;-65
2021/09/06 10:33:07;;;;;;;12.98;7.97;;;;;;;20.96;54.43;101657.97;5063662;28;20090;-67
2021/09/06 10:35:34;;;;;;;13.20;8.30;;;;;;;20.86;54.88;101665.97;5081254;28;20083;-66
2021/09/06 10:38:08;;;;;;;18.23;8.52;;;;;;;20.93;54.86;101655.56;5078718;28;20052;-67
2021/09/06 10:40:40;;;;;;;12.65;8.10;;;;;;;20.87;55.11;101664.13;5084091;28;20580;-67
2021/09/06 10:43:25;;;;;;;10.48;8.05;;;;;;;21.16;54.82;101653.56;5062354;28;20480;-66
2021/09/06 10:45:52;;;;;;;14.13;7.82;;;;;;;21.11;55.17;101645.94;5085195;28;20527;-66
2021/09/06 10:48:22;;;;;;;12.48;7.68;;;;;;;21.29;54.01;101642.63;5067619;28;20054;-67
2021/09/06 10:50:53;;;;;;;14.65;8.27;;;;;;;21.28;53.32;101640.94;5062614;28;20044;-66
2021/09/06 10:53:22;;;;;;;17.50;7.93;;;;;;;21.17;53.85;101644.56;5079080;28;20056;-67
2021/09/06 10:55:52;;;;;;;16.15;8.40;;;;;;;21.17;54.48;101641.91;5082487;28;20083;-67
2021/09/06 10:58:21;;;;;;;15.63;8.77;;;;;;;21.34;53.81;101643.94;5048714;28;20131;-67
2021/09/06 11:00:50;;;;;;;14.45;8.70;;;;;;;21.43;53.54;101643.16;5082183;28;20052;-67
2021/09/06 11:03:18;;;;;;;15.70;8.25;;;;;;;21.40;53.81;101645.25;5079523;28;20445;-69
2021/09/06 11:05:57;;;;;;;19.67;8.45;;;;;;;21.58;53.41;101640.94;5065409;28;20058;-66
2021/09/06 11:08:35;;;;;;;12.85;8.40;;;;;;;21.64;52.91;101634.16;5050126;28;20044;-67
2021/09/06 11:11:08;;;;;;;14.05;8.52;;;;;;;21.83;51.73;101634.19;5064809;28;20048;-67
2021/09/06 11:13:40;;;;;;;16.88;9.57;;;;;;;21.62;51.87;101630.78;5082483;28;20154;-67
2021/09/06 11:16:10;;;;;;;25.08;9.75;;;;;;;21.46;51.84;101633.97;5080759;28;20151;-67
2021/09/06 11:18:39;;;;;;;14.02;9.15;;;;;;;21.37;52.73;101632.13;5065003;28;20052;-68
2021/09/06 11:21:07;;;;;;;16.40;11.65;;;;;;;21.73;52.01;101631.50;5048769;28;20058;-67
2021/09/06 11:23:40;;;;;;;12.68;10.05;;;;;;;21.68;51.03;101625.72;5092973;28;20062;-67
2021/09/06 11:26:09;;;;;;;13.85;8.65;;;;;;;21.79;51.68;101629.25;5084045;28;20048;-68